sensor_id;sensor_type;location;lat;lon;timestamp;P1;durP1;ratioP1;P2;durP2;ratioP2
8665;SDS011;4370;48.916;8.380;2023-11-22T00:00:07;12.50;;;8.70;;
8665;SDS011;4370;48.916;8.380;2023-11-22T00:02:40;11.27;;;8.97;;
8665;SDS011;4370;48.916;8.380;2023-11-22T00:05:12;10.37;;;7.73;;
8665;SDS011;4370;48.916;8.380;2023-11-22T00:07:38;11.60;;;8.00;;
8665;SDS011;4370;48.916;8.380;2023-11-22T00:10:07;10.30;;;7.90;;
8665;SDS011;4370;48.916;8.380;2023-11-22T00:12:39;11.33;;;7.70;;
8665;SDS011;4370;48.916;8.380;2023-11-22T00:15:14;9.43;;;7.60;;
8665;SDS011;4370;48.916;8.380;2023-11-22T00:17:43;8.93;;;6.90;;
8665;SDS011;4370;48.916;8.380;2023-11-22T00:20:13;8.97;;;7.00;;
8665;SDS011;4370;48.916;8.380;2023-11-22T00:22:42;8.63;;;6.03;;
8665;SDS011;4370;48.916;8.380;2023-11-22T00:25:11;8.90;;;6.67;;
8665;SDS011;4370;48.916;8.380;2023-11-22T00:27:38;8.33;;;6.60;;
8665;SDS011;4370;48.916;8.380;2023-11-22T00:30:57;9.90;;;6.93;;
8665;SDS011;4370;48.916;8.380;2023-11-22T00:33:28;9.33;;;6.23;;
8665;SDS011;4370;48.916;8.380;2023-11-22T00:35:57;9.57;;;6.10;;
8665;SDS011;4370;48.916;8.380;2023-11-22T00:38:24;10.27;;;6.33;;
8665;SDS011;4370;48.916;8.380;2023-11-22T00:40:49;8.40;;;5.93;;
8665;SDS011;4370;48.916;8.380;2023-11-22T00:43:22;7.70;;;6.13;;
8665;SDS011;4370;48.916;8.380;2023-11-22T00:46:07;7.87;;;6.07;;
8665;SDS011;4370;48.916;8.380;2023-11-22T00:48:32;7.87;;;6.03;;
8665;SDS011;4370;48.916;8.380;2023-11-22T00:50:58;8.80;;;6.30;;
8665;SDS011;4370;48.916;8.380;2023-11-22T00:53:24;9.67;;;6.30;;
8665;SDS011;4370;48.916;8.380;2023-11-22T00:55:50;6.63;;;5.13;;
8665;SDS011;4370;48.916;8.380;2023-11-22T00:58:19;5.70;;;4.70;;
8665;SDS011;4370;48.916;8.380;2023-11-22T01:00:44;7.97;;;5.37;;
8665;SDS011;4370;48.916;8.380;2023-11-22T01:03:10;6.37;;;5.10;;
8665;SDS011;4370;48.916;8.380;2023-11-22T01:05:40;10.30;;;5.77;;
8665;SDS011;4370;48.916;8.380;2023-11-22T01:08:07;7.47;;;5.80;;
8665;SDS011;4370;48.916;8.380;2023-11-22T01:10:33;7.80;;;5.43;;
8665;SDS011;4370;48.916;8.380;2023-11-22T01:12:58;7.60;;;5.77;;
8665;SDS011;4370;48.916;8.380;2023-11-22T01:15:28;8.83;;;6.10;;
8665;SDS011;4370;48.916;8.380;2023-11-22T01:17:55;7.67;;;5.60;;
8665;SDS011;4370;48.916;8.380;2023-11-22T01:20:23;7.43;;;5.70;;
8665;SDS011;4370;48.916;8.380;2023-11-22T01:22:49;9.90;;;7.03;;
8665;SDS011;4370;48.916;8.380;2023-11-22T01:25:15;9.33;;;6.77;;
8665;SDS011;4370;48.916;8.380;2023-11-22T01:27:40;8.87;;;6.17;;
8665;SDS011;4370;48.916;8.380;2023-11-22T01:30:06;9.27;;;6.23;;
8665;SDS011;4370;48.916;8.380;2023-11-22T01:32:33;8.70;;;6.60;;
8665;SDS011;4370;48.916;8.380;2023-11-22T01:35:02;9.63;;;6.63;;
8665;SDS011;4370;48.916;8.380;2023-11-22T01:37:28;8.40;;;6.23;;
8665;SDS011;4370;48.916;8.380;2023-11-22T01:39:55;9.03;;;6.43;;
8665;SDS011;4370;48.916;8.380;2023-11-22T01:42:21;8.63;;;6.50;;
8665;SDS011;4370;48.916;8.380;2023-11-22T01:44:49;8.97;;;6.30;;
8665;SDS011;4370;48.916;8.380;2023-11-22T01:47:14;8.63;;;6.43;;
8665;SDS011;4370;48.916;8.380;2023-11-22T01:49:45;8.80;;;6.30;;
8665;SDS011;4370;48.916;8.380;2023-11-22T01:52:11;7.67;;;6.07;;
8665;SDS011;4370;48.916;8.380;2023-11-22T01:54:37;8.87;;;6.63;;
8665;SDS011;4370;48.916;8.380;2023-11-22T01:57:03;9.47;;;6.70;;
8665;SDS011;4370;48.916;8.380;2023-11-22T01:59:33;10.17;;;6.80;;
8665;SDS011;4370;48.916;8.380;2023-11-22T02:01:59;8.83;;;6.70;;
8665;SDS011;4370;48.916;8.380;2023-11-22T02:04:24;9.40;;;6.97;;
8665;SDS011;4370;48.916;8.380;2023-11-22T02:06:50;8.63;;;6.07;;
8665;SDS011;4370;48.916;8.380;2023-11-22T02:09:16;10.77;;;7.03;;
8665;SDS011;4370;48.916;8.380;2023-11-22T02:11:43;6.70;;;4.87;;
8665;SDS011;4370;48.916;8.380;2023-11-22T02:14:13;4.77;;;3.90;;
8665;SDS011;4370;48.916;8.380;2023-11-22T02:16:39;4.47;;;3.73;;
8665;SDS011;4370;48.916;8.380;2023-11-22T02:19:05;6.03;;;3.87;;
8665;SDS011;4370;48.916;8.380;2023-11-22T02:21:32;4.60;;;3.40;;
8665;SDS011;4370;48.916;8.380;2023-11-22T02:23:58;4.17;;;3.50;;
8665;SDS011;4370;48.916;8.380;2023-11-22T02:26:27;4.43;;;3.50;;
8665;SDS011;4370;48.916;8.380;2023-11-22T02:28:52;5.10;;;3.80;;
8665;SDS011;4370;48.916;8.380;2023-11-22T02:31:18;5.00;;;4.00;;
8665;SDS011;4370;48.916;8.380;2023-11-22T02:33:44;4.30;;;3.20;;
8665;SDS011;4370;48.916;8.380;2023-11-22T02:36:09;4.50;;;3.53;;
8665;SDS011;4370;48.916;8.380;2023-11-22T02:38:38;4.70;;;3.23;;
8665;SDS011;4370;48.916;8.380;2023-11-22T02:41:05;4.10;;;3.70;;
8665;SDS011;4370;48.916;8.380;2023-11-22T02:43:32;4.17;;;3.53;;
8665;SDS011;4370;48.916;8.380;2023-11-22T02:45:58;5.07;;;3.80;;
8665;SDS011;4370;48.916;8.380;2023-11-22T02:48:24;4.07;;;3.33;;
8665;SDS011;4370;48.916;8.380;2023-11-22T02:50:50;3.90;;;3.07;;
8665;SDS011;4370;48.916;8.380;2023-11-22T02:53:17;3.70;;;2.90;;
8665;SDS011;4370;48.916;8.380;2023-11-22T02:55:44;3.43;;;3.13;;
8665;SDS011;4370;48.916;8.380;2023-11-22T02:58:10;4.20;;;2.87;;
8665;SDS011;4370;48.916;8.380;2023-11-22T03:00:37;5.80;;;2.90;;
8665;SDS011;4370;48.916;8.380;2023-11-22T03:03:06;4.40;;;3.53;;
8665;SDS011;4370;48.916;8.380;2023-11-22T03:05:38;4.00;;;3.23;;
8665;SDS011;4370;48.916;8.380;2023-11-22T03:08:05;3.53;;;2.97;;
8665;SDS011;4370;48.916;8.380;2023-11-22T03:10:33;3.50;;;2.80;;
8665;SDS011;4370;48.916;8.380;2023-11-22T03:13:02;3.40;;;3.10;;
8665;SDS011;4370;48.916;8.380;2023-11-22T03:15:32;3.47;;;2.83;;
8665;SDS011;4370;48.916;8.380;2023-11-22T03:17:58;3.33;;;2.90;;
8665;SDS011;4370;48.916;8.380;2023-11-22T03:20:24;3.30;;;3.00;;
8665;SDS011;4370;48.916;8.380;2023-11-22T03:22:49;9.40;;;3.20;;
8665;SDS011;4370;48.916;8.380;2023-11-22T03:25:15;3.63;;;2.83;;
8665;SDS011;4370;48.916;8.380;2023-11-22T03:27:41;4.07;;;3.50;;
8665;SDS011;4370;48.916;8.380;2023-11-22T03:30:12;4.27;;;3.07;;
8665;SDS011;4370;48.916;8.380;2023-11-22T03:32:41;3.43;;;3.03;;
8665;SDS011;4370;48.916;8.380;2023-11-22T03:35:09;3.40;;;3.10;;
8665;SDS011;4370;48.916;8.380;2023-11-22T03:37:35;3.93;;;3.17;;
8665;SDS011;4370;48.916;8.380;2023-11-22T03:40:01;3.60;;;2.80;;
8665;SDS011;4370;48.916;8.380;2023-11-22T03:42:36;3.13;;;2.83;;
8665;SDS011;4370;48.916;8.380;2023-11-22T03:45:04;3.43;;;2.87;;
8665;SDS011;4370;48.916;8.380;2023-11-22T03:47:31;4.03;;;3.10;;
8665;SDS011;4370;48.916;8.380;2023-11-22T03:49:58;4.90;;;3.27;;
8665;SDS011;4370;48.916;8.380;2023-11-22T03:52:25;3.10;;;2.80;;
8665;SDS011;4370;48.916;8.380;2023-11-22T03:54:56;4.17;;;3.30;;
8665;SDS011;4370;48.916;8.380;2023-11-22T03:57:27;4.77;;;3.67;;
8665;SDS011;4370;48.916;8.380;2023-11-22T03:59:54;4.03;;;3.37;;
8665;SDS011;4370;48.916;8.380;2023-11-22T04:02:31;5.63;;;3.50;;
8665;SDS011;4370;48.916;8.380;2023-11-22T04:04:57;6.97;;;3.80;;
8665;SDS011;4370;48.916;8.380;2023-11-22T04:07:25;3.50;;;3.17;;
8665;SDS011;4370;48.916;8.380;2023-11-22T04:09:51;4.97;;;3.80;;
8665;SDS011;4370;48.916;8.380;2023-11-22T04:17:40;5.00;;;3.80;;
8665;SDS011;4370;48.916;8.380;2023-11-22T04:20:08;5.30;;;4.50;;
8665;SDS011;4370;48.916;8.380;2023-11-22T04:23:19;6.97;;;4.90;;
8665;SDS011;4370;48.916;8.380;2023-11-22T04:25:37;7.17;;;5.20;;
8665;SDS011;4370;48.916;8.380;2023-11-22T04:28:03;5.73;;;4.90;;
8665;SDS011;4370;48.916;8.380;2023-11-22T04:30:50;5.93;;;5.00;;
8665;SDS011;4370;48.916;8.380;2023-11-22T04:33:19;5.87;;;5.00;;
8665;SDS011;4370;48.916;8.380;2023-11-22T04:35:48;6.77;;;5.23;;
8665;SDS011;4370;48.916;8.380;2023-11-22T04:38:25;7.33;;;4.93;;
8665;SDS011;4370;48.916;8.380;2023-11-22T04:40:53;6.27;;;4.63;;
8665;SDS011;4370;48.916;8.380;2023-11-22T04:43:21;5.80;;;4.30;;
8665;SDS011;4370;48.916;8.380;2023-11-22T04:45:46;6.53;;;4.47;;
8665;SDS011;4370;48.916;8.380;2023-11-22T04:48:15;5.60;;;4.20;;
8665;SDS011;4370;48.916;8.380;2023-11-22T04:50:42;4.70;;;3.60;;
8665;SDS011;4370;48.916;8.380;2023-11-22T04:53:08;4.40;;;3.80;;
8665;SDS011;4370;48.916;8.380;2023-11-22T04:55:35;6.83;;;4.00;;
8665;SDS011;4370;48.916;8.380;2023-11-22T04:58:03;5.53;;;4.03;;
8665;SDS011;4370;48.916;8.380;2023-11-22T05:00:30;4.73;;;3.93;;
8665;SDS011;4370;48.916;8.380;2023-11-22T05:02:56;5.33;;;3.37;;
8665;SDS011;4370;48.916;8.380;2023-11-22T05:05:25;6.37;;;3.60;;
8665;SDS011;4370;48.916;8.380;2023-11-22T05:07:51;4.83;;;3.30;;
8665;SDS011;4370;48.916;8.380;2023-11-22T05:10:17;5.10;;;3.03;;
8665;SDS011;4370;48.916;8.380;2023-11-22T05:12:44;4.50;;;3.00;;
8665;SDS011;4370;48.916;8.380;2023-11-22T05:15:11;4.43;;;3.40;;
8665;SDS011;4370;48.916;8.380;2023-11-22T05:18:00;4.13;;;3.50;;
8665;SDS011;4370;48.916;8.380;2023-11-22T05:20:31;4.83;;;3.63;;
8665;SDS011;4370;48.916;8.380;2023-11-22T05:22:58;5.97;;;3.53;;
8665;SDS011;4370;48.916;8.380;2023-11-22T05:25:32;4.37;;;3.43;;
8665;SDS011;4370;48.916;8.380;2023-11-22T05:28:22;5.23;;;3.57;;
8665;SDS011;4370;48.916;8.380;2023-11-22T05:31:02;4.57;;;3.57;;
8665;SDS011;4370;48.916;8.380;2023-11-22T05:33:28;4.47;;;3.60;;
8665;SDS011;4370;48.916;8.380;2023-11-22T05:36:11;4.93;;;3.60;;
8665;SDS011;4370;48.916;8.380;2023-11-22T05:39:16;5.50;;;4.03;;
8665;SDS011;4370;48.916;8.380;2023-11-22T05:41:53;5.40;;;3.27;;
8665;SDS011;4370;48.916;8.380;2023-11-22T05:44:42;4.73;;;3.40;;
8665;SDS011;4370;48.916;8.380;2023-11-22T05:47:10;5.07;;;3.63;;
8665;SDS011;4370;48.916;8.380;2023-11-22T05:49:40;6.40;;;3.57;;
8665;SDS011;4370;48.916;8.380;2023-11-22T05:52:08;4.87;;;3.40;;
8665;SDS011;4370;48.916;8.380;2023-11-22T05:54:34;5.47;;;3.80;;
8665;SDS011;4370;48.916;8.380;2023-11-22T05:57:02;5.83;;;3.87;;
8665;SDS011;4370;48.916;8.380;2023-11-22T05:59:36;8.43;;;3.67;;
8665;SDS011;4370;48.916;8.380;2023-11-22T06:02:02;4.60;;;3.50;;
8665;SDS011;4370;48.916;8.380;2023-11-22T06:04:28;4.63;;;3.63;;
8665;SDS011;4370;48.916;8.380;2023-11-22T06:17:08;7.60;;;3.70;;
8665;SDS011;4370;48.916;8.380;2023-11-22T06:19:55;5.37;;;3.80;;
8665;SDS011;4370;48.916;8.380;2023-11-22T06:22:53;6.07;;;3.87;;
8665;SDS011;4370;48.916;8.380;2023-11-22T06:25:39;5.63;;;4.07;;
8665;SDS011;4370;48.916;8.380;2023-11-22T06:28:18;5.40;;;3.73;;
8665;SDS011;4370;48.916;8.380;2023-11-22T06:30:44;5.47;;;3.73;;
8665;SDS011;4370;48.916;8.380;2023-11-22T06:33:10;5.00;;;3.70;;
8665;SDS011;4370;48.916;8.380;2023-11-22T06:35:36;4.80;;;3.80;;
8665;SDS011;4370;48.916;8.380;2023-11-22T06:38:03;5.40;;;3.83;;
8665;SDS011;4370;48.916;8.380;2023-11-22T06:43:05;5.37;;;4.27;;
8665;SDS011;4370;48.916;8.380;2023-11-22T06:45:31;8.53;;;3.60;;
8665;SDS011;4370;48.916;8.380;2023-11-22T06:48:08;7.83;;;3.93;;
8665;SDS011;4370;48.916;8.380;2023-11-22T06:50:45;5.57;;;3.87;;
8665;SDS011;4370;48.916;8.380;2023-11-22T06:53:11;5.27;;;4.00;;
8665;SDS011;4370;48.916;8.380;2023-11-22T06:55:38;6.50;;;3.93;;
8665;SDS011;4370;48.916;8.380;2023-11-22T06:58:05;4.83;;;3.67;;
8665;SDS011;4370;48.916;8.380;2023-11-22T07:00:35;7.10;;;3.93;;
8665;SDS011;4370;48.916;8.380;2023-11-22T07:03:28;6.73;;;4.10;;
8665;SDS011;4370;48.916;8.380;2023-11-22T07:05:57;5.57;;;4.10;;
8665;SDS011;4370;48.916;8.380;2023-11-22T07:08:24;6.13;;;4.10;;
8665;SDS011;4370;48.916;8.380;2023-11-22T07:10:54;6.33;;;3.87;;
8665;SDS011;4370;48.916;8.380;2023-11-22T07:13:40;5.17;;;4.13;;
8665;SDS011;4370;48.916;8.380;2023-11-22T07:16:07;5.40;;;4.27;;
8665;SDS011;4370;48.916;8.380;2023-11-22T07:18:48;6.27;;;3.97;;
8665;SDS011;4370;48.916;8.380;2023-11-22T07:21:16;6.53;;;4.40;;
8665;SDS011;4370;48.916;8.380;2023-11-22T07:23:42;6.47;;;4.47;;
8665;SDS011;4370;48.916;8.380;2023-11-22T07:28:55;7.20;;;4.20;;
8665;SDS011;4370;48.916;8.380;2023-11-22T07:31:21;6.20;;;4.00;;
8665;SDS011;4370;48.916;8.380;2023-11-22T07:33:54;4.43;;;3.70;;
8665;SDS011;4370;48.916;8.380;2023-11-22T07:36:21;5.70;;;3.90;;
8665;SDS011;4370;48.916;8.380;2023-11-22T07:38:56;8.03;;;4.20;;
8665;SDS011;4370;48.916;8.380;2023-11-22T07:41:39;6.10;;;4.00;;
8665;SDS011;4370;48.916;8.380;2023-11-22T07:44:24;6.20;;;4.40;;
8665;SDS011;4370;48.916;8.380;2023-11-22T07:46:56;6.30;;;3.80;;
8665;SDS011;4370;48.916;8.380;2023-11-22T07:49:26;5.87;;;4.13;;
8665;SDS011;4370;48.916;8.380;2023-11-22T07:52:02;5.77;;;4.00;;
8665;SDS011;4370;48.916;8.380;2023-11-22T07:54:30;5.10;;;3.80;;
8665;SDS011;4370;48.916;8.380;2023-11-22T07:56:55;6.13;;;4.20;;
8665;SDS011;4370;48.916;8.380;2023-11-22T07:59:29;4.87;;;3.93;;
8665;SDS011;4370;48.916;8.380;2023-11-22T08:01:55;7.70;;;4.40;;
8665;SDS011;4370;48.916;8.380;2023-11-22T08:04:22;6.70;;;4.90;;
8665;SDS011;4370;48.916;8.380;2023-11-22T08:06:48;5.63;;;4.03;;
8665;SDS011;4370;48.916;8.380;2023-11-22T08:36:21;7.27;;;4.03;;
8665;SDS011;4370;48.916;8.380;2023-11-22T08:52:25;6.27;;;4.30;;
8665;SDS011;4370;48.916;8.380;2023-11-22T09:02:09;8.50;;;3.87;;
8665;SDS011;4370;48.916;8.380;2023-11-22T09:14:14;4.60;;;3.60;;
8665;SDS011;4370;48.916;8.380;2023-11-22T09:23:39;4.93;;;3.60;;
8665;SDS011;4370;48.916;8.380;2023-11-22T09:35:39;4.40;;;3.40;;
8665;SDS011;4370;48.916;8.380;2023-11-22T09:42:21;4.50;;;3.23;;
8665;SDS011;4370;48.916;8.380;2023-11-22T10:12:06;4.93;;;3.67;;
8665;SDS011;4370;48.916;8.380;2023-11-22T10:28:00;4.73;;;3.73;;
8665;SDS011;4370;48.916;8.380;2023-11-22T10:37:52;3.70;;;3.10;;
8665;SDS011;4370;48.916;8.380;2023-11-22T10:40:28;4.30;;;3.27;;
8665;SDS011;4370;48.916;8.380;2023-11-22T10:42:55;4.80;;;3.43;;
8665;SDS011;4370;48.916;8.380;2023-11-22T10:45:24;4.57;;;3.60;;
8665;SDS011;4370;48.916;8.380;2023-11-22T10:48:00;9.33;;;4.00;;
8665;SDS011;4370;48.916;8.380;2023-11-22T10:57:54;5.13;;;3.77;;
8665;SDS011;4370;48.916;8.380;2023-11-22T12:17:10;5.90;;;4.07;;
8665;SDS011;4370;48.916;8.380;2023-11-22T12:19:45;4.80;;;3.50;;
8665;SDS011;4370;48.916;8.380;2023-11-22T12:22:27;4.63;;;3.80;;
8665;SDS011;4370;48.916;8.380;2023-11-22T12:25:22;5.80;;;4.17;;
8665;SDS011;4370;48.916;8.380;2023-11-22T12:28:08;4.80;;;3.60;;
8665;SDS011;4370;48.916;8.380;2023-11-22T12:58:16;4.27;;;3.27;;
8665;SDS011;4370;48.916;8.380;2023-11-22T13:01:20;5.13;;;4.00;;
8665;SDS011;4370;48.916;8.380;2023-11-22T13:07:09;4.20;;;3.40;;
8665;SDS011;4370;48.916;8.380;2023-11-22T13:09:45;4.47;;;3.50;;
8665;SDS011;4370;48.916;8.380;2023-11-22T13:12:19;5.03;;;3.60;;
8665;SDS011;4370;48.916;8.380;2023-11-22T13:14:53;6.70;;;4.00;;
8665;SDS011;4370;48.916;8.380;2023-11-22T13:17:30;4.53;;;3.67;;
8665;SDS011;4370;48.916;8.380;2023-11-22T13:23:03;4.80;;;3.53;;
8665;SDS011;4370;48.916;8.380;2023-11-22T13:28:56;6.17;;;3.67;;
8665;SDS011;4370;48.916;8.380;2023-11-22T13:34:34;4.30;;;3.40;;
8665;SDS011;4370;48.916;8.380;2023-11-22T13:37:06;8.47;;;4.13;;
8665;SDS011;4370;48.916;8.380;2023-11-22T13:43:44;5.43;;;4.23;;
8665;SDS011;4370;48.916;8.380;2023-11-22T13:49:18;6.30;;;4.23;;
8665;SDS011;4370;48.916;8.380;2023-11-22T14:02:33;5.10;;;3.90;;
8665;SDS011;4370;48.916;8.380;2023-11-22T14:05:19;5.20;;;4.00;;
8665;SDS011;4370;48.916;8.380;2023-11-22T14:10:45;5.73;;;4.00;;
8665;SDS011;4370;48.916;8.380;2023-11-22T14:13:24;5.17;;;4.33;;
8665;SDS011;4370;48.916;8.380;2023-11-22T14:19:11;5.00;;;3.70;;
8665;SDS011;4370;48.916;8.380;2023-11-22T14:21:39;5.40;;;4.00;;
8665;SDS011;4370;48.916;8.380;2023-11-22T14:24:17;6.97;;;4.20;;
8665;SDS011;4370;48.916;8.380;2023-11-22T14:26:54;6.10;;;3.97;;
8665;SDS011;4370;48.916;8.380;2023-11-22T14:29:25;5.87;;;3.90;;
8665;SDS011;4370;48.916;8.380;2023-11-22T14:31:51;4.67;;;3.20;;
8665;SDS011;4370;48.916;8.380;2023-11-22T15:04:37;6.83;;;3.90;;
8665;SDS011;4370;48.916;8.380;2023-11-22T15:09:50;5.17;;;4.13;;
8665;SDS011;4370;48.916;8.380;2023-11-22T15:12:19;6.47;;;4.00;;
8665;SDS011;4370;48.916;8.380;2023-11-22T15:17:54;5.73;;;4.40;;
8665;SDS011;4370;48.916;8.380;2023-11-22T15:23:38;4.93;;;3.77;;
8665;SDS011;4370;48.916;8.380;2023-11-22T15:42:56;7.63;;;5.80;;
8665;SDS011;4370;48.916;8.380;2023-11-22T15:45:21;6.90;;;5.40;;
8665;SDS011;4370;48.916;8.380;2023-11-22T15:50:51;6.30;;;5.10;;
8665;SDS011;4370;48.916;8.380;2023-11-22T15:53:19;6.97;;;5.40;;
8665;SDS011;4370;48.916;8.380;2023-11-22T16:05:33;5.93;;;4.27;;
8665;SDS011;4370;48.916;8.380;2023-11-22T16:08:03;6.00;;;4.33;;
8665;SDS011;4370;48.916;8.380;2023-11-22T16:28:01;5.27;;;3.60;;
8665;SDS011;4370;48.916;8.380;2023-11-22T16:43:52;8.10;;;4.07;;
8665;SDS011;4370;48.916;8.380;2023-11-22T17:09:39;5.50;;;4.20;;
8665;SDS011;4370;48.916;8.380;2023-11-22T17:12:33;8.00;;;7.20;;
8665;SDS011;4370;48.916;8.380;2023-11-22T17:24:43;9.50;;;7.07;;
8665;SDS011;4370;48.916;8.380;2023-11-22T17:32:50;8.43;;;6.73;;
8665;SDS011;4370;48.916;8.380;2023-11-22T17:35:26;13.50;;;9.70;;
8665;SDS011;4370;48.916;8.380;2023-11-22T18:05:15;9.80;;;7.10;;
8665;SDS011;4370;48.916;8.380;2023-11-22T18:07:57;7.83;;;5.87;;
8665;SDS011;4370;48.916;8.380;2023-11-22T18:17:05;25.90;;;21.17;;
8665;SDS011;4370;48.916;8.380;2023-11-22T18:20:10;21.43;;;14.93;;
8665;SDS011;4370;48.916;8.380;2023-11-22T18:23:31;15.33;;;11.10;;
8665;SDS011;4370;48.916;8.380;2023-11-22T18:25:55;8.07;;;5.77;;
8665;SDS011;4370;48.916;8.380;2023-11-22T18:28:27;6.50;;;5.80;;
8665;SDS011;4370;48.916;8.380;2023-11-22T18:38:00;8.00;;;5.77;;
8665;SDS011;4370;48.916;8.380;2023-11-22T18:41:05;8.00;;;5.87;;
8665;SDS011;4370;48.916;8.380;2023-11-22T19:36:20;16.87;;;11.27;;
8665;SDS011;4370;48.916;8.380;2023-11-22T19:42:08;13.43;;;8.63;;
8665;SDS011;4370;48.916;8.380;2023-11-22T19:44:35;11.10;;;8.60;;
8665;SDS011;4370;48.916;8.380;2023-11-22T19:57:59;9.30;;;6.87;;
8665;SDS011;4370;48.916;8.380;2023-11-22T20:17:37;12.47;;;8.33;;
8665;SDS011;4370;48.916;8.380;2023-11-22T20:20:04;13.20;;;8.73;;
8665;SDS011;4370;48.916;8.380;2023-11-22T20:22:33;14.00;;;8.83;;
8665;SDS011;4370;48.916;8.380;2023-11-22T20:25:04;20.87;;;11.93;;
8665;SDS011;4370;48.916;8.380;2023-11-22T20:27:39;15.60;;;10.47;;
8665;SDS011;4370;48.916;8.380;2023-11-22T20:30:06;14.40;;;9.10;;
8665;SDS011;4370;48.916;8.380;2023-11-22T20:32:42;11.10;;;7.83;;
8665;SDS011;4370;48.916;8.380;2023-11-22T20:35:08;11.23;;;8.20;;
8665;SDS011;4370;48.916;8.380;2023-11-22T20:44:30;11.70;;;7.60;;
8665;SDS011;4370;48.916;8.380;2023-11-22T20:47:02;18.20;;;11.03;;
8665;SDS011;4370;48.916;8.380;2023-11-22T20:49:29;17.03;;;10.43;;
8665;SDS011;4370;48.916;8.380;2023-11-22T21:05:20;13.13;;;8.93;;
8665;SDS011;4370;48.916;8.380;2023-11-22T21:07:50;11.83;;;8.60;;
8665;SDS011;4370;48.916;8.380;2023-11-22T21:10:27;9.27;;;7.17;;
8665;SDS011;4370;48.916;8.380;2023-11-22T21:12:55;9.87;;;7.33;;
8665;SDS011;4370;48.916;8.380;2023-11-22T21:15:24;9.03;;;6.57;;
8665;SDS011;4370;48.916;8.380;2023-11-22T21:17:50;9.87;;;6.77;;
8665;SDS011;4370;48.916;8.380;2023-11-22T21:20:27;9.10;;;6.73;;
8665;SDS011;4370;48.916;8.380;2023-11-22T21:22:53;7.73;;;5.93;;
8665;SDS011;4370;48.916;8.380;2023-11-22T21:25:20;8.47;;;5.97;;
8665;SDS011;4370;48.916;8.380;2023-11-22T21:27:57;8.50;;;6.17;;
8665;SDS011;4370;48.916;8.380;2023-11-22T21:30:24;10.33;;;6.67;;
8665;SDS011;4370;48.916;8.380;2023-11-22T21:32:51;8.77;;;6.13;;
8665;SDS011;4370;48.916;8.380;2023-11-22T21:35:33;11.73;;;7.77;;
8665;SDS011;4370;48.916;8.380;2023-11-22T21:38:02;13.00;;;9.17;;
8665;SDS011;4370;48.916;8.380;2023-11-22T21:56:28;10.83;;;7.27;;
8665;SDS011;4370;48.916;8.380;2023-11-22T21:59:06;12.50;;;7.53;;
8665;SDS011;4370;48.916;8.380;2023-11-22T22:01:37;9.30;;;6.53;;
8665;SDS011;4370;48.916;8.380;2023-11-22T22:07:10;10.57;;;6.63;;
8665;SDS011;4370;48.916;8.380;2023-11-22T22:12:45;9.70;;;6.93;;
8665;SDS011;4370;48.916;8.380;2023-11-22T22:15:14;10.40;;;7.90;;
8665;SDS011;4370;48.916;8.380;2023-11-22T22:17:49;11.13;;;8.47;;
8665;SDS011;4370;48.916;8.380;2023-11-22T22:20:17;10.30;;;7.27;;
8665;SDS011;4370;48.916;8.380;2023-11-22T22:22:43;9.30;;;7.20;;
8665;SDS011;4370;48.916;8.380;2023-11-22T22:25:09;9.33;;;6.60;;
8665;SDS011;4370;48.916;8.380;2023-11-22T22:27:35;10.30;;;6.77;;
8665;SDS011;4370;48.916;8.380;2023-11-22T22:30:01;10.33;;;7.97;;
8665;SDS011;4370;48.916;8.380;2023-11-22T22:32:28;10.40;;;6.90;;
8665;SDS011;4370;48.916;8.380;2023-11-22T22:34:54;12.00;;;7.83;;
8665;SDS011;4370;48.916;8.380;2023-11-22T22:37:27;9.63;;;7.53;;
8665;SDS011;4370;48.916;8.380;2023-11-22T22:39:53;11.87;;;7.40;;
8665;SDS011;4370;48.916;8.380;2023-11-22T22:42:20;12.93;;;9.13;;
8665;SDS011;4370;48.916;8.380;2023-11-22T22:44:47;11.43;;;8.00;;
8665;SDS011;4370;48.916;8.380;2023-11-22T22:47:18;16.03;;;9.97;;
8665;SDS011;4370;48.916;8.380;2023-11-22T23:03:24;11.73;;;8.30;;
8665;SDS011;4370;48.916;8.380;2023-11-22T23:06:01;13.13;;;8.73;;
8665;SDS011;4370;48.916;8.380;2023-11-22T23:08:36;12.50;;;8.40;;
8665;SDS011;4370;48.916;8.380;2023-11-22T23:11:02;11.10;;;7.03;;
8665;SDS011;4370;48.916;8.380;2023-11-22T23:13:31;11.00;;;6.83;;
8665;SDS011;4370;48.916;8.380;2023-11-22T23:16:15;9.00;;;6.53;;
8665;SDS011;4370;48.916;8.380;2023-11-22T23:18:56;10.37;;;7.33;;
8665;SDS011;4370;48.916;8.380;2023-11-22T23:21:31;14.17;;;9.03;;
8665;SDS011;4370;48.916;8.380;2023-11-22T23:24:00;13.63;;;9.30;;
8665;SDS011;4370;48.916;8.380;2023-11-22T23:26:45;13.43;;;9.50;;
8665;SDS011;4370;48.916;8.380;2023-11-22T23:29:12;15.50;;;10.17;;
8665;SDS011;4370;48.916;8.380;2023-11-22T23:31:39;18.07;;;10.67;;
8665;SDS011;4370;48.916;8.380;2023-11-22T23:34:08;17.03;;;10.40;;
8665;SDS011;4370;48.916;8.380;2023-11-22T23:36:34;15.30;;;9.90;;
8665;SDS011;4370;48.916;8.380;2023-11-22T23:39:03;14.03;;;9.10;;
8665;SDS011;4370;48.916;8.380;2023-11-22T23:48:17;16.00;;;10.27;;
8665;SDS011;4370;48.916;8.380;2023-11-22T23:50:43;12.60;;;8.10;;
8665;SDS011;4370;48.916;8.380;2023-11-22T23:53:30;14.00;;;8.47;;
8665;SDS011;4370;48.916;8.380;2023-11-22T23:55:58;13.23;;;8.03;;
8665;SDS011;4370;48.916;8.380;2023-11-22T23:58:27;12.40;;;8.10;;
